createdAt,value
2019-05-09T00:01:43.952Z,95836.00
2019-05-09T00:04:14.027Z,95836.00
2019-05-09T00:06:43.512Z,95843.00
2019-05-09T00:09:14.054Z,95851.00
2019-05-09T00:11:44.027Z,95836.00
2019-05-09T00:14:13.736Z,95834.00
2019-05-09T00:16:44.063Z,95849.00
2019-05-09T00:19:13.980Z,95834.00
2019-05-09T00:21:44.960Z,95825.00
2019-05-09T00:24:14.323Z,95835.00
2019-05-09T00:26:44.371Z,95825.00
2019-05-09T00:29:18.098Z,95834.00
2019-05-09T00:31:49.155Z,95847.00
2019-05-09T00:34:36.374Z,95842.00
2019-05-09T00:37:05.755Z,95833.00
2019-05-09T00:39:35.111Z,95840.00
2019-05-09T00:42:04.611Z,95837.00
2019-05-09T00:44:35.585Z,95828.00
2019-05-09T00:47:09.381Z,95830.00
2019-05-09T00:49:38.730Z,95829.00
2019-05-09T00:52:08.408Z,95838.00
2019-05-09T00:54:37.746Z,95835.00
2019-05-09T00:57:07.222Z,95851.00
2019-05-09T00:59:36.586Z,95840.00
2019-05-09T01:02:05.951Z,95848.00
2019-05-09T01:04:35.526Z,95842.00
2019-05-09T01:07:05.566Z,95834.00
2019-05-09T01:09:34.930Z,95835.00
2019-05-09T01:12:04.329Z,95838.00
2019-05-09T01:14:34.198Z,95842.00
2019-05-09T01:17:04.270Z,95834.00
2019-05-09T01:19:33.985Z,95824.00
2019-05-09T01:22:04.319Z,95833.00
2019-05-09T01:24:33.925Z,95826.00
2019-05-09T01:27:03.797Z,95828.00
2019-05-09T01:29:33.881Z,95828.00
2019-05-09T01:32:05.563Z,95834.00
2019-05-09T01:34:36.411Z,95824.00
2019-05-09T01:37:10.178Z,95827.00
2019-05-09T01:39:39.621Z,95824.00
2019-05-09T01:42:09.189Z,95827.00
2019-05-09T01:44:38.660Z,95824.00
2019-05-09T01:47:09.301Z,95826.00
2019-05-09T01:49:38.673Z,95827.00
2019-05-09T01:52:08.674Z,95828.00
2019-05-09T02:14:55.857Z,95830.00
2019-05-09T02:17:26.835Z,95822.00
2019-05-09T02:19:56.209Z,95825.00
2019-05-09T02:22:34.958Z,95822.00
2019-05-09T02:25:10.126Z,95834.00
2019-05-09T02:27:39.567Z,95836.00
2019-05-09T02:30:15.205Z,95830.00
2019-05-09T02:32:44.949Z,95821.00
2019-05-09T02:35:15.499Z,95830.00
2019-05-09T02:37:44.863Z,95832.00
2019-05-09T02:40:14.520Z,95823.00
2019-05-09T02:42:43.935Z,95823.00
2019-05-09T02:45:13.797Z,95815.00
2019-05-09T02:47:43.160Z,95817.00
2019-05-09T02:50:13.061Z,95812.00
2019-05-09T02:52:42.407Z,95810.00
2019-05-09T02:55:12.246Z,95807.00
2019-05-09T02:57:41.994Z,95804.00
2019-05-09T03:00:30.133Z,95807.00
2019-05-09T03:03:19.939Z,95811.00
2019-05-09T03:05:49.681Z,95813.00
2019-05-09T03:08:19.527Z,95814.00
2019-05-09T03:10:49.423Z,95809.00
2019-05-09T03:13:19.379Z,95812.00
2019-05-09T03:15:50.532Z,95807.00
2019-05-09T03:18:19.918Z,95801.00
2019-05-09T03:20:50.929Z,95804.00
2019-05-09T03:23:20.286Z,95802.00
2019-05-09T03:25:49.688Z,95805.00
2019-05-09T03:28:38.671Z,95809.00
2019-05-09T03:31:09.425Z,95796.00
2019-05-09T03:33:40.474Z,95807.00
2019-05-09T03:36:10.407Z,95796.00
2019-05-09T03:38:40.275Z,95803.00
2019-05-09T03:41:09.623Z,95790.00
2019-05-09T03:43:38.977Z,95787.00
2019-05-09T03:46:28.147Z,95806.00
2019-05-09T03:49:01.898Z,95801.00
2019-05-09T03:51:31.264Z,95796.00
2019-05-09T03:54:00.957Z,95793.00
2019-05-09T03:56:37.458Z,95799.00
2019-05-09T03:59:08.258Z,95803.00
2019-05-09T04:01:38.180Z,95795.00
2019-05-09T04:04:08.742Z,95803.00
2019-05-09T04:06:39.170Z,95795.00
2019-05-09T04:09:10.440Z,95797.00
2019-05-09T04:11:39.814Z,95793.00
2019-05-09T04:14:17.565Z,95791.00
2019-05-09T04:16:48.258Z,95792.00
2019-05-09T04:19:17.670Z,95811.00
2019-05-09T04:21:48.382Z,95803.00
2019-05-09T04:24:17.872Z,95802.00
2019-05-09T04:26:51.800Z,95795.00
2019-05-09T04:29:21.514Z,95817.00
2019-05-09T04:31:50.871Z,95817.00
2019-05-09T04:34:20.225Z,95803.00
2019-05-09T04:36:49.615Z,95807.00
2019-05-09T04:39:23.604Z,95806.00
2019-05-09T04:41:50.061Z,95805.00
2019-05-09T04:44:21.885Z,95808.00
2019-05-09T04:46:54.293Z,95809.00
2019-05-09T04:49:22.391Z,95815.00
2019-05-09T04:51:51.779Z,95808.00
2019-05-09T04:54:21.151Z,95809.00
2019-05-09T04:56:53.658Z,95820.00
2019-05-09T04:59:21.593Z,95812.00
2019-05-09T05:02:08.859Z,95823.00
2019-05-09T05:04:38.188Z,95819.00
2019-05-09T05:07:07.784Z,95823.00
2019-05-09T05:09:37.998Z,95810.00
2019-05-09T05:12:08.518Z,95818.00
2019-05-09T05:14:38.579Z,95819.00
2019-05-09T05:17:11.112Z,95810.00
2019-05-09T05:19:39.179Z,95823.00
2019-05-09T05:22:12.834Z,95812.00
2019-05-09T05:24:43.837Z,95831.00
2019-05-09T05:27:13.232Z,95836.00
2019-05-09T05:29:42.601Z,95833.00
2019-05-09T05:32:13.593Z,95833.00
2019-05-09T05:34:44.605Z,95830.00
2019-05-09T05:37:13.964Z,95821.00
2019-05-09T05:39:43.306Z,95825.00
2019-05-09T05:42:12.686Z,95819.00
2019-05-09T05:44:42.037Z,95825.00
2019-05-09T05:47:13.035Z,95829.00
2019-05-09T05:49:42.485Z,95824.00
2019-05-09T05:52:11.830Z,95834.00
2019-05-09T05:54:41.219Z,95840.00
2019-05-09T05:57:10.609Z,95833.00
2019-05-09T05:59:41.062Z,95835.00
2019-05-09T06:02:10.833Z,95828.00
2019-05-09T06:04:40.191Z,95830.00
2019-05-09T06:07:09.572Z,95818.00
2019-05-09T06:09:39.006Z,95831.00
2019-05-09T06:12:08.839Z,95830.00
2019-05-09T06:14:38.196Z,95824.00
2019-05-09T06:17:08.170Z,95846.00
2019-05-09T06:19:38.172Z,95827.00
2019-05-09T06:22:08.433Z,95834.00
2019-05-09T06:24:38.699Z,95834.00
2019-05-09T06:27:10.391Z,95839.00
2019-05-09T06:29:39.549Z,95841.00
2019-05-09T06:32:08.880Z,95847.00
2019-05-09T06:34:41.870Z,95830.00
2019-05-09T06:37:09.448Z,95830.00
2019-05-09T06:39:39.195Z,95847.00
2019-05-09T06:42:09.302Z,95835.00
2019-05-09T06:44:40.985Z,95838.00
2019-05-09T06:47:11.986Z,95838.00
2019-05-09T06:49:43.324Z,95848.00
2019-05-09T06:52:12.686Z,95836.00
2019-05-09T06:54:42.042Z,95834.00
2019-05-09T06:57:11.442Z,95836.00
2019-05-09T06:59:40.807Z,95833.00
2019-05-09T07:02:11.836Z,95836.00
2019-05-09T07:04:43.101Z,95834.00
2019-05-09T07:07:17.746Z,95824.00
2019-05-09T07:09:48.855Z,95827.00
2019-05-09T07:12:18.273Z,95831.00
2019-05-09T07:14:48.746Z,95821.00
2019-05-09T07:17:18.764Z,95822.00
2019-05-09T07:19:49.058Z,95815.00
2019-05-09T07:22:20.277Z,95820.00
2019-05-09T07:25:11.158Z,95826.00
2019-05-09T07:27:45.100Z,95818.00
2019-05-09T07:30:18.416Z,95834.00
2019-05-09T07:33:01.689Z,95822.00
2019-05-09T07:35:31.066Z,95824.00
2019-05-09T07:38:00.436Z,95810.00
2019-05-09T07:40:30.847Z,95818.00
2019-05-09T07:43:00.720Z,95808.00
2019-05-09T07:45:30.086Z,95805.00
2019-05-09T07:47:59.438Z,95807.00
2019-05-09T07:50:28.817Z,95813.00
2019-05-09T07:52:58.407Z,95804.00
2019-05-09T07:55:27.719Z,95791.00
2019-05-09T07:57:59.121Z,95798.00
2019-05-09T08:00:34.413Z,95789.00
2019-05-09T08:03:03.841Z,95790.00
2019-05-09T08:05:33.426Z,95791.00
2019-05-09T08:08:04.141Z,95805.00
2019-05-09T08:10:33.580Z,95794.00
2019-05-09T08:13:02.915Z,95793.00
2019-05-09T08:15:32.277Z,95800.00
2019-05-09T08:18:01.680Z,95806.00
2019-05-09T08:20:31.050Z,95793.00
2019-05-09T08:23:02.076Z,95798.00
2019-05-09T08:25:31.647Z,95794.00
2019-05-09T08:28:01.054Z,95788.00
2019-05-09T08:30:35.742Z,95787.00
2019-05-09T08:33:01.562Z,95795.00
2019-05-09T08:35:30.939Z,95798.00
2019-05-09T08:38:00.312Z,95790.00
2019-05-09T08:40:29.715Z,95787.00
2019-05-09T08:42:59.249Z,95784.00
2019-05-09T08:45:31.566Z,95790.00
2019-05-09T08:47:59.870Z,95795.00
2019-05-09T08:50:38.881Z,95781.00
2019-05-09T08:53:08.476Z,95788.00
2019-05-09T08:55:38.464Z,95786.00
2019-05-09T08:58:08.259Z,95781.00
2019-05-09T09:00:39.015Z,95793.00
2019-05-09T09:03:08.624Z,95782.00
2019-05-09T09:05:38.327Z,95787.00
2019-05-09T09:08:08.595Z,95787.00
2019-05-09T09:10:38.996Z,95780.00
2019-05-09T09:13:09.083Z,95782.00
2019-05-09T09:18:09.652Z,95780.00
2019-05-09T09:20:39.171Z,95778.00
2019-05-09T09:23:09.231Z,95788.00
2019-05-09T09:25:39.304Z,95783.00
2019-05-09T09:28:09.166Z,95778.00
2019-05-09T09:30:39.571Z,95784.00
2019-05-09T09:33:13.521Z,95775.00
2019-05-09T09:35:40.035Z,95781.00
2019-05-09T09:38:09.631Z,95776.00
2019-05-09T09:40:38.999Z,95779.00
2019-05-09T09:43:09.416Z,95780.00
2019-05-09T09:45:38.908Z,95766.00
2019-05-09T09:48:09.811Z,95775.00
2019-05-09T09:50:39.169Z,95774.00
2019-05-09T09:53:09.211Z,95767.00
2019-05-09T09:55:38.862Z,95773.00
2019-05-09T09:58:08.467Z,95761.00
2019-05-09T10:00:48.238Z,95759.00
2019-05-09T10:03:18.647Z,95765.00
2019-05-09T10:05:48.731Z,95776.00
2019-05-09T10:08:18.597Z,95778.00
2019-05-09T10:10:48.590Z,95777.00
2019-05-09T10:13:19.460Z,95780.00
2019-05-09T10:15:58.532Z,95775.00
2019-05-09T10:18:40.735Z,95756.00
2019-05-09T10:21:11.754Z,95777.00
2019-05-09T10:23:41.119Z,95769.00
2019-05-09T10:26:10.491Z,95772.00
2019-05-09T10:28:39.894Z,95766.00
2019-05-09T10:31:09.658Z,95782.00
2019-05-09T10:33:38.983Z,95775.00
2019-05-09T10:36:08.754Z,95781.00
2019-05-09T10:38:38.832Z,95787.00
2019-05-09T10:41:11.352Z,95781.00
2019-05-09T10:43:57.851Z,95775.00
2019-05-09T10:46:47.734Z,95779.00
2019-05-09T10:49:04.598Z,95782.00
2019-05-09T10:51:34.121Z,95782.00
2019-05-09T10:54:03.589Z,95781.00
2019-05-09T10:56:32.956Z,95777.00
2019-05-09T10:59:02.303Z,95782.00
2019-05-09T11:01:31.665Z,95796.00
2019-05-09T11:04:01.070Z,95775.00
2019-05-09T11:06:30.431Z,95778.00
2019-05-09T11:08:59.810Z,95781.00
2019-05-09T11:11:29.364Z,95779.00
2019-05-09T11:13:59.216Z,95776.00
2019-05-09T11:16:42.296Z,95779.00
2019-05-09T11:19:00.750Z,95776.00
2019-05-09T11:21:30.112Z,95775.00
2019-05-09T11:23:59.481Z,95777.00
2019-05-09T11:26:29.096Z,95777.00
2019-05-09T11:28:59.023Z,95773.00
2019-05-09T11:31:29.601Z,95787.00
2019-05-09T11:33:59.168Z,95773.00
2019-05-09T11:36:28.608Z,95780.00
2019-05-09T11:39:00.528Z,95794.00
2019-05-09T11:41:30.129Z,95788.00
2019-05-09T11:44:00.047Z,95795.00
2019-05-09T11:46:29.506Z,95795.00
2019-05-09T11:48:59.443Z,95801.00
2019-05-09T11:51:29.535Z,95806.00
2019-05-09T11:53:59.112Z,95786.00
2019-05-09T11:56:28.500Z,95788.00
2019-05-09T11:58:58.132Z,95792.00
2019-05-09T12:01:29.238Z,95784.00
2019-05-09T12:03:58.883Z,95790.00
2019-05-09T12:06:29.252Z,95798.00
2019-05-09T12:08:59.153Z,95795.00
2019-05-09T12:11:29.578Z,95790.00
2019-05-09T12:13:58.944Z,95791.00
2019-05-09T12:16:28.325Z,95800.00
2019-05-09T12:18:58.527Z,95801.00
2019-05-09T12:21:28.599Z,95801.00
2019-05-09T12:23:58.603Z,95801.00
2019-05-09T12:26:29.093Z,95801.00
2019-05-09T12:28:58.793Z,95807.00
2019-05-09T12:31:29.119Z,95807.00
2019-05-09T12:33:59.532Z,95806.00
2019-05-09T12:36:29.209Z,95805.00
2019-05-09T12:38:59.425Z,95811.00
2019-05-09T12:41:31.409Z,95810.00
2019-05-09T12:44:00.044Z,95810.00
2019-05-09T12:46:29.416Z,95812.00
2019-05-09T12:49:00.433Z,95810.00
2019-05-09T12:51:29.804Z,95813.00
2019-05-09T12:53:59.178Z,95824.00
2019-05-09T12:56:28.762Z,95816.00
2019-05-09T12:58:58.983Z,95824.00
2019-05-09T13:01:28.350Z,95816.00
2019-05-09T13:03:58.452Z,95837.00
2019-05-09T13:06:29.599Z,95829.00
2019-05-09T13:08:59.024Z,95835.00
2019-05-09T13:11:28.482Z,95833.00
2019-05-09T13:13:57.864Z,95838.00
2019-05-09T13:16:43.993Z,95845.00
2019-05-09T13:19:18.531Z,95842.00
2019-05-09T13:21:49.074Z,95841.00
2019-05-09T13:24:19.579Z,95846.00
2019-05-09T13:26:50.980Z,95858.00
2019-05-09T13:29:20.339Z,95859.00
2019-05-09T13:31:49.694Z,95848.00
2019-05-09T13:34:19.166Z,95851.00
2019-05-09T13:36:49.071Z,95854.00
2019-05-09T13:39:18.499Z,95861.00
2019-05-09T13:41:48.515Z,95860.00
2019-05-09T13:44:18.306Z,95873.00
2019-05-09T13:46:48.865Z,95862.00
2019-05-09T13:49:19.488Z,95868.00
2019-05-09T13:51:58.560Z,95874.00
2019-05-09T13:54:20.128Z,95873.00
2019-05-09T13:56:56.637Z,95887.00
2019-05-09T13:59:20.859Z,95887.00
2019-05-09T14:01:50.287Z,95884.00
2019-05-09T14:04:19.695Z,95888.00
2019-05-09T14:06:49.052Z,95883.00
2019-05-09T14:09:19.996Z,95910.00
2019-05-09T14:11:49.602Z,95892.00
2019-05-09T14:14:18.970Z,95891.00
2019-05-09T14:16:48.343Z,95902.00
2019-05-09T14:19:36.094Z,95894.00
2019-05-09T14:21:48.850Z,95906.00
2019-05-09T14:24:19.416Z,95901.00
2019-05-09T14:26:51.034Z,95913.00
2019-05-09T14:29:20.893Z,95905.00
2019-05-09T14:31:50.343Z,95909.00
2019-05-09T14:34:20.121Z,95910.00
2019-05-09T14:36:49.765Z,95908.00
2019-05-09T14:39:19.190Z,95901.00
2019-05-09T14:41:48.586Z,95892.00
2019-05-09T14:44:18.504Z,95900.00
2019-05-09T14:46:48.338Z,95904.00
2019-05-09T14:49:17.936Z,95915.00
2019-05-09T14:51:49.796Z,95923.00
2019-05-09T14:54:18.434Z,95913.00
2019-05-09T14:56:48.694Z,95917.00
2019-05-09T14:59:18.916Z,95918.00
2019-05-09T15:01:49.585Z,95920.00
2019-05-09T15:04:19.800Z,95915.00
2019-05-09T15:06:49.161Z,95923.00
2019-05-09T15:09:18.536Z,95923.00
2019-05-09T15:11:48.558Z,95937.00
2019-05-09T15:14:18.358Z,95932.00
2019-05-09T15:16:48.677Z,95929.00
2019-05-09T15:19:18.860Z,95930.00
2019-05-09T15:21:48.862Z,95941.00
2019-05-09T15:24:19.382Z,95951.00
2019-05-09T15:26:49.386Z,95956.00
2019-05-09T15:29:18.768Z,95954.00
2019-05-09T15:31:54.233Z,95954.00
2019-05-09T15:34:20.988Z,95949.00
2019-05-09T15:36:50.351Z,95947.00
2019-05-09T15:39:19.719Z,95953.00
2019-05-09T15:41:49.120Z,95949.00
2019-05-09T15:44:18.850Z,95956.00
2019-05-09T15:46:50.030Z,95947.00
2019-05-09T15:49:19.426Z,95953.00
2019-05-09T15:51:48.810Z,95957.00
2019-05-09T15:54:18.159Z,95944.00
2019-05-09T15:56:48.469Z,95953.00
2019-05-09T15:59:18.478Z,95965.00
2019-05-09T16:01:49.189Z,95971.00
2019-05-09T16:04:18.807Z,95961.00
2019-05-09T16:06:50.564Z,95964.00
2019-05-09T16:09:19.512Z,95978.00
2019-05-09T16:11:48.961Z,95977.00
2019-05-09T16:14:18.675Z,95982.00
2019-05-09T16:16:48.238Z,95972.00
2019-05-09T16:19:17.623Z,95958.00
2019-05-09T16:21:47.876Z,95966.00
2019-05-09T16:24:18.878Z,95978.00
2019-05-09T16:26:48.914Z,95980.00
2019-05-09T16:29:19.457Z,95971.00
2019-05-09T16:31:48.926Z,95970.00
2019-05-09T16:34:18.685Z,95957.00
2019-05-09T16:36:48.280Z,95974.00
2019-05-09T16:39:18.319Z,95967.00
2019-05-09T16:41:48.647Z,95976.00
2019-05-09T16:44:18.652Z,95985.00
2019-05-09T16:46:48.751Z,95987.00
2019-05-09T16:49:20.000Z,95989.00
2019-05-09T16:51:49.522Z,95980.00
2019-05-09T16:54:19.551Z,95985.00
2019-05-09T16:56:49.282Z,96004.00
2019-05-09T16:59:18.674Z,96002.00
2019-05-09T17:01:50.378Z,95998.00
2019-05-09T17:04:19.441Z,95999.00
2019-05-09T17:06:49.743Z,96009.00
2019-05-09T17:09:19.370Z,96009.00
2019-05-09T17:11:48.854Z,96012.00
2019-05-09T17:14:19.257Z,96009.00
2019-05-09T17:16:52.537Z,95999.00
2019-05-09T17:19:20.380Z,96016.00
2019-05-09T17:21:51.781Z,96018.00
2019-05-09T17:24:22.428Z,96011.00
2019-05-09T17:26:51.837Z,96020.00
2019-05-09T17:29:21.225Z,96020.00
2019-05-09T17:31:50.690Z,96027.00
2019-05-09T17:34:20.066Z,96034.00
2019-05-09T17:36:49.429Z,96024.00
2019-05-09T17:39:18.786Z,96032.00
2019-05-09T17:41:48.176Z,96039.00
2019-05-09T17:44:18.608Z,96054.00
2019-05-09T17:46:48.222Z,96045.00
2019-05-09T17:49:17.732Z,96056.00
2019-05-09T17:51:48.283Z,96063.00
2019-05-09T17:54:18.384Z,96061.00
2019-05-09T17:56:48.526Z,96062.00
2019-05-09T17:59:18.567Z,96078.00
2019-05-09T18:01:48.321Z,96084.00
2019-05-09T18:04:18.367Z,96064.00
2019-05-09T18:06:49.391Z,96069.00
2019-05-09T18:09:19.113Z,96076.00
2019-05-09T18:11:48.552Z,96070.00
2019-05-09T18:14:18.461Z,96068.00
2019-05-09T18:16:48.076Z,96071.00
2019-05-09T18:19:17.957Z,96094.00
2019-05-09T18:21:50.961Z,96082.00
2019-05-09T18:24:18.556Z,96084.00
2019-05-09T18:26:48.269Z,96089.00
2019-05-09T18:29:18.177Z,96092.00
2019-05-09T18:31:49.388Z,96090.00
2019-05-09T18:34:20.007Z,96105.00
2019-05-09T18:36:49.711Z,96104.00
2019-05-09T18:39:20.387Z,96105.00
2019-05-09T18:41:50.035Z,96096.00
2019-05-09T18:44:19.487Z,96106.00
2019-05-09T18:46:48.976Z,96113.00
2019-05-09T18:49:18.423Z,96125.00
2019-05-09T18:52:01.639Z,96118.00
2019-05-09T18:54:18.874Z,96126.00
2019-05-09T18:56:48.345Z,96133.00
2019-05-09T18:59:17.706Z,96124.00
2019-05-09T19:01:47.117Z,96142.00
2019-05-09T19:04:16.604Z,96140.00
2019-05-09T19:06:46.022Z,96136.00
2019-05-09T19:09:15.473Z,96134.00
2019-05-09T19:11:45.097Z,96127.00
2019-05-09T19:14:16.239Z,96138.00
2019-05-09T19:16:47.316Z,96133.00
2019-05-09T19:19:23.862Z,96131.00
2019-05-09T19:21:54.947Z,96138.00
2019-05-09T19:24:24.299Z,96138.00
2019-05-09T19:26:53.686Z,96144.00
2019-05-09T19:29:23.046Z,96154.00
2019-05-09T19:31:52.464Z,96153.00
2019-05-09T19:34:22.512Z,96169.00
2019-05-09T19:36:52.982Z,96159.00
2019-05-09T19:39:22.690Z,96175.00
2019-05-09T19:41:52.125Z,96167.00
2019-05-09T19:44:21.492Z,96182.00
2019-05-09T19:46:50.864Z,96188.00
2019-05-09T19:49:20.275Z,96184.00
2019-05-09T19:51:49.609Z,96249.00
2019-05-09T19:54:19.005Z,96266.00
2019-05-09T19:56:48.425Z,96259.00
2019-05-09T19:59:17.791Z,96257.00
2019-05-09T20:01:47.233Z,96257.00
2019-05-09T20:04:16.638Z,96255.00
2019-05-09T20:06:46.077Z,96270.00
2019-05-09T20:09:17.088Z,96255.00
2019-05-09T20:11:54.123Z,96273.00
2019-05-09T20:14:30.665Z,96274.00
2019-05-09T20:17:00.036Z,96281.00
2019-05-09T20:19:29.947Z,96279.00
2019-05-09T20:21:59.287Z,96287.00
2019-05-09T20:24:28.675Z,96278.00
2019-05-09T20:26:58.067Z,96279.00
2019-05-09T20:29:30.182Z,96270.00
2019-05-09T20:31:58.872Z,96277.00
2019-05-09T20:34:28.295Z,96285.00
2019-05-09T20:36:57.645Z,96301.00
2019-05-09T20:39:30.627Z,96293.00
2019-05-09T20:41:58.912Z,96293.00
2019-05-09T20:44:28.455Z,96304.00
2019-05-09T20:46:58.012Z,96303.00
2019-05-09T20:49:27.600Z,96310.00
2019-05-09T20:51:57.158Z,96305.00
2019-05-09T20:54:26.749Z,96300.00
2019-05-09T20:56:56.301Z,96301.00
2019-05-09T20:59:25.858Z,96313.00
2019-05-09T21:01:55.408Z,96324.00
2019-05-09T21:04:25.398Z,96315.00
2019-05-09T21:06:54.988Z,96335.00
2019-05-09T21:09:24.556Z,96334.00
2019-05-09T21:11:54.137Z,96335.00
2019-05-09T21:14:23.704Z,96337.00
2019-05-09T21:16:53.284Z,96339.00
2019-05-09T21:19:22.892Z,96334.00
2019-05-09T21:21:52.438Z,96329.00
2019-05-09T21:24:22.013Z,96343.00
2019-05-09T21:26:51.974Z,96332.00
2019-05-09T21:29:21.514Z,96342.00
2019-05-09T21:31:51.066Z,96343.00
2019-05-09T21:34:20.634Z,96349.00
2019-05-09T21:36:49.987Z,96357.00
2019-05-09T21:39:20.999Z,96363.00
2019-05-09T21:41:50.727Z,96360.00
2019-05-09T21:44:20.173Z,96351.00
2019-05-09T21:46:49.469Z,96361.00
2019-05-09T21:49:19.207Z,96363.00
2019-05-09T21:51:48.568Z,96368.00
2019-05-09T21:54:17.950Z,96369.00
2019-05-09T21:56:47.358Z,96363.00
2019-05-09T21:59:16.797Z,96360.00
2019-05-09T22:01:47.197Z,96376.00
2019-05-09T22:04:16.598Z,96369.00
2019-05-09T22:06:45.960Z,96377.00
2019-05-09T22:09:15.377Z,96390.00
2019-05-09T22:11:44.835Z,96384.00
2019-05-09T22:14:14.212Z,96383.00
2019-05-09T22:16:43.884Z,96405.00
2019-05-09T22:19:13.256Z,96397.00
2019-05-09T22:21:42.667Z,96392.00
2019-05-09T22:24:11.984Z,96388.00
2019-05-09T22:26:41.449Z,96393.00
2019-05-09T22:29:10.808Z,96390.00
2019-05-09T22:31:40.173Z,96403.00
2019-05-09T22:34:09.698Z,96409.00
2019-05-09T22:36:39.099Z,96401.00
2019-05-09T22:39:08.796Z,96397.00
2019-05-09T22:41:38.180Z,96404.00
2019-05-09T22:44:07.949Z,96417.00
2019-05-09T22:46:37.327Z,96419.00
2019-05-09T22:49:06.724Z,96408.00
2019-05-09T22:51:36.120Z,96413.00
2019-05-09T22:54:12.583Z,96420.00
2019-05-09T22:56:36.704Z,96409.00
2019-05-09T22:59:06.141Z,96418.00
2019-05-09T23:01:35.512Z,96417.00
2019-05-09T23:04:05.003Z,96413.00
2019-05-09T23:06:34.388Z,96413.00
2019-05-09T23:09:05.023Z,96424.00
2019-05-09T23:11:34.482Z,96416.00
2019-05-09T23:14:04.142Z,96424.00
2019-05-09T23:16:35.168Z,96429.00
2019-05-09T23:19:04.988Z,96426.00
2019-05-09T23:21:34.437Z,96422.00
2019-05-09T23:24:08.189Z,96426.00
2019-05-09T23:26:37.636Z,96429.00
2019-05-09T23:29:07.108Z,96424.00
2019-05-09T23:31:38.126Z,96428.00
2019-05-09T23:34:07.872Z,96422.00
2019-05-09T23:36:37.250Z,96419.00
2019-05-09T23:39:17.966Z,96429.00
2019-05-09T23:41:47.334Z,96421.00
2019-05-09T23:44:16.713Z,96435.00
2019-05-09T23:46:46.108Z,96416.00
2019-05-09T23:49:15.481Z,96429.00
2019-05-09T23:51:49.531Z,96422.00
2019-05-09T23:54:46.923Z,96419.00
2019-05-09T23:57:30.996Z,96431.00
